sensor_id;sensor_type;location;lat;lon;timestamp;pressure;altitude;pressure_sealevel;temperature;humidity
6393;BME280;3229;42.674;23.282;2022-08-18T00:00:53;94510.53;;;24.20;58.74
6393;BME280;3229;42.674;23.282;2022-08-18T00:03:19;94516.00;;;24.19;59.09
6393;BME280;3229;42.674;23.282;2022-08-18T00:05:48;94518.28;;;24.15;58.88
6393;BME280;3229;42.674;23.282;2022-08-18T00:08:15;94518.50;;;24.14;58.89
6393;BME280;3229;42.674;23.282;2022-08-18T00:10:42;94516.09;;;24.12;59.32
6393;BME280;3229;42.674;23.282;2022-08-18T00:13:09;94520.19;;;24.08;59.28
6393;BME280;3229;42.674;23.282;2022-08-18T00:15:36;94519.38;;;24.08;59.48
6393;BME280;3229;42.674;23.282;2022-08-18T00:18:03;94511.78;;;24.06;59.17
6393;BME280;3229;42.674;23.282;2022-08-18T00:20:30;94521.66;;;24.04;59.61
6393;BME280;3229;42.674;23.282;2022-08-18T00:22:58;94513.94;;;23.97;59.72
6393;BME280;3229;42.674;23.282;2022-08-18T00:25:25;94524.38;;;23.97;60.00
6393;BME280;3229;42.674;23.282;2022-08-18T00:27:52;94510.84;;;23.89;60.00
6393;BME280;3229;42.674;23.282;2022-08-18T00:30:20;94514.25;;;23.89;60.02
6393;BME280;3229;42.674;23.282;2022-08-18T00:32:49;94523.91;;;23.89;60.40
6393;BME280;3229;42.674;23.282;2022-08-18T00:35:19;94518.56;;;23.84;60.74
6393;BME280;3229;42.674;23.282;2022-08-18T00:37:47;94515.69;;;23.73;61.20
6393;BME280;3229;42.674;23.282;2022-08-18T00:40:17;94514.34;;;23.71;61.28
6393;BME280;3229;42.674;23.282;2022-08-18T00:42:47;94521.16;;;23.72;61.29
6393;BME280;3229;42.674;23.282;2022-08-18T00:45:25;94490.72;;;23.47;61.33
6393;BME280;3229;42.674;23.282;2022-08-18T00:47:53;94511.66;;;23.59;61.54
6393;BME280;3229;42.674;23.282;2022-08-18T00:50:27;94526.44;;;23.65;61.55
6393;BME280;3229;42.674;23.282;2022-08-18T00:53:01;94534.72;;;23.62;61.48
6393;BME280;3229;42.674;23.282;2022-08-18T00:55:30;94535.94;;;23.60;61.51
6393;BME280;3229;42.674;23.282;2022-08-18T00:58:03;94535.38;;;23.58;61.62
6393;BME280;3229;42.674;23.282;2022-08-18T01:00:32;94529.56;;;23.56;61.75
6393;BME280;3229;42.674;23.282;2022-08-18T01:03:02;94534.00;;;23.55;61.72
6393;BME280;3229;42.674;23.282;2022-08-18T01:05:34;94534.00;;;23.55;61.43
6393;BME280;3229;42.674;23.282;2022-08-18T01:08:06;94536.84;;;23.53;61.89
6393;BME280;3229;42.674;23.282;2022-08-18T01:10:37;94535.22;;;23.52;61.90
6393;BME280;3229;42.674;23.282;2022-08-18T01:13:05;94532.28;;;23.49;62.03
6393;BME280;3229;42.674;23.282;2022-08-18T01:15:33;94533.75;;;23.45;62.41
6393;BME280;3229;42.674;23.282;2022-08-18T01:18:04;94532.59;;;23.41;62.49
6393;BME280;3229;42.674;23.282;2022-08-18T01:20:53;94531.88;;;23.34;62.75
6393;BME280;3229;42.674;23.282;2022-08-18T01:23:42;94540.59;;;23.27;63.08
6393;BME280;3229;42.674;23.282;2022-08-18T01:26:10;94530.66;;;23.18;63.44
6393;BME280;3229;42.674;23.282;2022-08-18T01:28:39;94534.44;;;23.22;63.63
6393;BME280;3229;42.674;23.282;2022-08-18T01:31:08;94534.88;;;23.19;63.49
6393;BME280;3229;42.674;23.282;2022-08-18T01:33:38;94527.91;;;23.13;63.48
6393;BME280;3229;42.674;23.282;2022-08-18T01:36:10;94532.69;;;23.16;63.38
6393;BME280;3229;42.674;23.282;2022-08-18T01:38:42;94529.78;;;23.06;63.92
6393;BME280;3229;42.674;23.282;2022-08-18T01:41:09;94534.81;;;23.07;64.01
6393;BME280;3229;42.674;23.282;2022-08-18T01:43:36;94533.78;;;23.08;64.27
6393;BME280;3229;42.674;23.282;2022-08-18T01:46:04;94513.75;;;22.90;64.53
6393;BME280;3229;42.674;23.282;2022-08-18T01:48:33;94531.47;;;23.00;64.40
6393;BME280;3229;42.674;23.282;2022-08-18T01:51:01;94522.50;;;22.96;64.64
6393;BME280;3229;42.674;23.282;2022-08-18T01:53:30;94527.78;;;22.89;64.75
6393;BME280;3229;42.674;23.282;2022-08-18T01:55:58;94532.19;;;22.89;64.85
6393;BME280;3229;42.674;23.282;2022-08-18T01:58:25;94524.56;;;22.87;65.24
6393;BME280;3229;42.674;23.282;2022-08-18T02:00:53;94524.19;;;22.84;65.36
6393;BME280;3229;42.674;23.282;2022-08-18T02:03:24;94517.69;;;22.74;65.77
6393;BME280;3229;42.674;23.282;2022-08-18T02:05:57;94524.50;;;22.75;65.89
6393;BME280;3229;42.674;23.282;2022-08-18T02:08:26;94518.34;;;22.70;66.48
6393;BME280;3229;42.674;23.282;2022-08-18T02:10:52;94536.06;;;22.79;66.44
6393;BME280;3229;42.674;23.282;2022-08-18T02:13:21;94534.72;;;22.77;66.59
6393;BME280;3229;42.674;23.282;2022-08-18T02:15:48;94529.13;;;22.73;66.77
6393;BME280;3229;42.674;23.282;2022-08-18T02:18:16;94532.63;;;22.67;67.53
6393;BME280;3229;42.674;23.282;2022-08-18T02:20:44;94531.88;;;22.60;68.16
6393;BME280;3229;42.674;23.282;2022-08-18T02:23:12;94510.13;;;22.48;67.85
6393;BME280;3229;42.674;23.282;2022-08-18T02:25:41;94530.34;;;22.52;68.32
6393;BME280;3229;42.674;23.282;2022-08-18T02:28:08;94523.78;;;22.50;68.33
6393;BME280;3229;42.674;23.282;2022-08-18T02:30:36;94514.03;;;22.39;68.70
6393;BME280;3229;42.674;23.282;2022-08-18T02:33:03;94524.03;;;22.42;68.81
6393;BME280;3229;42.674;23.282;2022-08-18T02:35:30;94521.06;;;22.38;69.05
6393;BME280;3229;42.674;23.282;2022-08-18T02:37:58;94520.47;;;22.36;68.88
6393;BME280;3229;42.674;23.282;2022-08-18T02:40:25;94495.13;;;22.25;67.94
6393;BME280;3229;42.674;23.282;2022-08-18T02:42:53;94526.66;;;22.42;67.70
6393;BME280;3229;42.674;23.282;2022-08-18T02:45:20;94517.06;;;22.36;67.90
6393;BME280;3229;42.674;23.282;2022-08-18T02:47:52;94529.72;;;22.32;68.46
6393;BME280;3229;42.674;23.282;2022-08-18T02:50:19;94487.31;;;22.00;68.58
6393;BME280;3229;42.674;23.282;2022-08-18T02:52:46;94531.00;;;22.23;68.86
6393;BME280;3229;42.674;23.282;2022-08-18T02:55:14;94534.63;;;22.22;69.04
6393;BME280;3229;42.674;23.282;2022-08-18T02:57:41;94533.03;;;22.21;69.76
6393;BME280;3229;42.674;23.282;2022-08-18T03:00:10;94528.06;;;22.19;69.49
6393;BME280;3229;42.674;23.282;2022-08-18T03:02:38;94535.50;;;22.16;69.63
6393;BME280;3229;42.674;23.282;2022-08-18T03:05:08;94527.31;;;22.12;69.90
6393;BME280;3229;42.674;23.282;2022-08-18T03:07:35;94527.69;;;22.09;70.13
6393;BME280;3229;42.674;23.282;2022-08-18T03:10:02;94527.91;;;22.08;70.49
6393;BME280;3229;42.674;23.282;2022-08-18T03:12:29;94531.34;;;22.01;70.59
6393;BME280;3229;42.674;23.282;2022-08-18T03:14:56;94523.78;;;21.93;70.87
6393;BME280;3229;42.674;23.282;2022-08-18T03:17:22;94534.03;;;21.95;71.26
6393;BME280;3229;42.674;23.282;2022-08-18T03:19:49;94539.22;;;21.95;71.42
6393;BME280;3229;42.674;23.282;2022-08-18T03:22:18;94534.22;;;21.93;70.94
6393;BME280;3229;42.674;23.282;2022-08-18T03:24:44;94539.41;;;21.93;71.28
6393;BME280;3229;42.674;23.282;2022-08-18T03:27:11;94538.84;;;21.91;71.57
6393;BME280;3229;42.674;23.282;2022-08-18T03:29:38;94537.44;;;21.89;71.85
6393;BME280;3229;42.674;23.282;2022-08-18T03:32:06;94518.97;;;21.72;72.10
6393;BME280;3229;42.674;23.282;2022-08-18T03:34:33;94534.53;;;21.78;72.23
6393;BME280;3229;42.674;23.282;2022-08-18T03:37:00;94513.78;;;21.65;72.46
6393;BME280;3229;42.674;23.282;2022-08-18T03:39:29;94539.91;;;21.84;72.16
6393;BME280;3229;42.674;23.282;2022-08-18T03:41:56;94538.31;;;21.83;72.25
6393;BME280;3229;42.674;23.282;2022-08-18T03:44:23;94481.22;;;21.56;71.69
6393;BME280;3229;42.674;23.282;2022-08-18T03:46:50;94519.13;;;21.77;71.89
6393;BME280;3229;42.674;23.282;2022-08-18T03:49:18;94540.50;;;21.86;72.26
6393;BME280;3229;42.674;23.282;2022-08-18T03:51:46;94479.03;;;21.53;71.77
6393;BME280;3229;42.674;23.282;2022-08-18T03:54:14;94540.50;;;21.86;72.05
6393;BME280;3229;42.674;23.282;2022-08-18T03:56:45;94535.13;;;21.81;72.49
6393;BME280;3229;42.674;23.282;2022-08-18T03:59:14;94556.75;;;21.81;72.70
6393;BME280;3229;42.674;23.282;2022-08-18T04:01:43;94543.34;;;21.77;72.90
6393;BME280;3229;42.674;23.282;2022-08-18T04:04:12;94541.31;;;21.79;73.32
6393;BME280;3229;42.674;23.282;2022-08-18T04:06:44;94537.59;;;21.69;73.03
6393;BME280;3229;42.674;23.282;2022-08-18T04:09:16;94546.38;;;21.74;73.58
6393;BME280;3229;42.674;23.282;2022-08-18T04:11:45;94553.38;;;21.74;73.82
6393;BME280;3229;42.674;23.282;2022-08-18T04:14:14;94555.75;;;21.75;73.75
6393;BME280;3229;42.674;23.282;2022-08-18T04:16:42;94569.16;;;21.79;73.47
6393;BME280;3229;42.674;23.282;2022-08-18T04:19:10;94571.56;;;21.81;73.11
6393;BME280;3229;42.674;23.282;2022-08-18T04:21:40;94575.94;;;21.87;73.14
6393;BME280;3229;42.674;23.282;2022-08-18T04:24:09;94569.72;;;21.88;72.67
6393;BME280;3229;42.674;23.282;2022-08-18T04:26:38;94556.53;;;21.83;72.28
6393;BME280;3229;42.674;23.282;2022-08-18T04:29:08;94572.13;;;21.89;72.89
6393;BME280;3229;42.674;23.282;2022-08-18T04:31:36;94576.47;;;21.95;72.57
6393;BME280;3229;42.674;23.282;2022-08-18T04:34:03;94584.88;;;21.97;72.55
6393;BME280;3229;42.674;23.282;2022-08-18T04:36:33;94582.81;;;22.06;72.60
6393;BME280;3229;42.674;23.282;2022-08-18T04:39:01;94583.19;;;22.10;72.86
6393;BME280;3229;42.674;23.282;2022-08-18T04:41:29;94583.97;;;22.17;72.89
6393;BME280;3229;42.674;23.282;2022-08-18T04:43:58;94566.91;;;22.21;72.45
6393;BME280;3229;42.674;23.282;2022-08-18T04:46:27;94582.34;;;22.41;72.18
6393;BME280;3229;42.674;23.282;2022-08-18T04:48:57;94590.50;;;22.51;71.89
6393;BME280;3229;42.674;23.282;2022-08-18T04:51:26;94591.19;;;22.65;71.36
6393;BME280;3229;42.674;23.282;2022-08-18T04:53:54;94587.59;;;22.84;70.73
6393;BME280;3229;42.674;23.282;2022-08-18T04:56:22;94563.13;;;22.85;70.19
6393;BME280;3229;42.674;23.282;2022-08-18T04:58:52;94594.59;;;23.09;68.79
6393;BME280;3229;42.674;23.282;2022-08-18T05:01:21;94594.59;;;22.90;69.13
6393;BME280;3229;42.674;23.282;2022-08-18T05:03:50;94596.25;;;23.21;68.92
6393;BME280;3229;42.674;23.282;2022-08-18T05:06:18;94591.34;;;23.32;68.41
6393;BME280;3229;42.674;23.282;2022-08-18T05:08:45;94587.47;;;23.34;67.53
6393;BME280;3229;42.674;23.282;2022-08-18T05:11:12;94592.16;;;23.44;66.83
6393;BME280;3229;42.674;23.282;2022-08-18T05:13:39;94585.84;;;23.70;66.33
6393;BME280;3229;42.674;23.282;2022-08-18T05:16:07;94583.16;;;23.76;66.17
6393;BME280;3229;42.674;23.282;2022-08-18T05:18:35;94584.34;;;23.92;65.75
6393;BME280;3229;42.674;23.282;2022-08-18T05:21:05;94591.47;;;23.85;65.04
6393;BME280;3229;42.674;23.282;2022-08-18T05:23:38;94597.59;;;23.91;65.07
6393;BME280;3229;42.674;23.282;2022-08-18T05:26:05;94603.59;;;24.10;64.49
6393;BME280;3229;42.674;23.282;2022-08-18T05:28:33;94607.13;;;24.15;64.30
6393;BME280;3229;42.674;23.282;2022-08-18T05:31:05;94593.84;;;24.28;64.09
6393;BME280;3229;42.674;23.282;2022-08-18T05:33:33;94599.00;;;24.47;63.56
6393;BME280;3229;42.674;23.282;2022-08-18T05:36:04;94595.22;;;24.31;63.12
6393;BME280;3229;42.674;23.282;2022-08-18T05:38:39;94601.50;;;24.42;63.35
6393;BME280;3229;42.674;23.282;2022-08-18T05:41:13;94602.19;;;24.61;62.89
6393;BME280;3229;42.674;23.282;2022-08-18T05:43:43;94613.13;;;24.81;62.59
6393;BME280;3229;42.674;23.282;2022-08-18T05:46:11;94590.38;;;24.82;62.37
6393;BME280;3229;42.674;23.282;2022-08-18T05:48:38;94608.88;;;25.03;62.17
6393;BME280;3229;42.674;23.282;2022-08-18T05:51:12;94607.06;;;25.27;61.99
6393;BME280;3229;42.674;23.282;2022-08-18T05:53:42;94607.84;;;25.40;60.25
6393;BME280;3229;42.674;23.282;2022-08-18T05:56:32;94613.69;;;25.59;60.26
6393;BME280;3229;42.674;23.282;2022-08-18T05:59:13;94591.72;;;25.60;60.30
6393;BME280;3229;42.674;23.282;2022-08-18T06:01:45;94599.75;;;25.82;59.54
6393;BME280;3229;42.674;23.282;2022-08-18T06:04:22;94614.00;;;26.02;59.20
6393;BME280;3229;42.674;23.282;2022-08-18T06:06:55;94606.56;;;26.28;59.25
6393;BME280;3229;42.674;23.282;2022-08-18T06:09:27;94608.13;;;26.58;58.08
6393;BME280;3229;42.674;23.282;2022-08-18T06:12:03;94597.06;;;26.72;57.57
6393;BME280;3229;42.674;23.282;2022-08-18T06:14:36;94613.09;;;27.10;56.69
6393;BME280;3229;42.674;23.282;2022-08-18T06:17:15;94608.66;;;27.32;54.94
6393;BME280;3229;42.674;23.282;2022-08-18T06:19:53;94615.50;;;27.55;54.93
6393;BME280;3229;42.674;23.282;2022-08-18T06:22:29;94609.75;;;27.80;54.57
6393;BME280;3229;42.674;23.282;2022-08-18T06:25:02;94608.63;;;27.98;54.20
6393;BME280;3229;42.674;23.282;2022-08-18T06:27:37;94610.19;;;28.26;53.78
6393;BME280;3229;42.674;23.282;2022-08-18T06:30:16;94614.03;;;28.40;52.03
6393;BME280;3229;42.674;23.282;2022-08-18T06:32:57;94611.94;;;28.42;52.11
6393;BME280;3229;42.674;23.282;2022-08-18T06:35:33;94619.56;;;28.44;52.25
6393;BME280;3229;42.674;23.282;2022-08-18T06:38:14;94619.34;;;28.45;51.67
6393;BME280;3229;42.674;23.282;2022-08-18T06:41:04;94626.41;;;28.45;52.38
6393;BME280;3229;42.674;23.282;2022-08-18T06:43:35;94615.56;;;28.68;52.18
6393;BME280;3229;42.674;23.282;2022-08-18T06:46:10;94609.19;;;28.96;51.90
6393;BME280;3229;42.674;23.282;2022-08-18T06:48:52;94606.19;;;29.30;51.16
6393;BME280;3229;42.674;23.282;2022-08-18T06:51:20;94580.69;;;29.41;49.75
6393;BME280;3229;42.674;23.282;2022-08-18T06:53:59;94601.38;;;29.69;49.73
6393;BME280;3229;42.674;23.282;2022-08-18T06:56:33;94577.13;;;29.67;49.10
6393;BME280;3229;42.674;23.282;2022-08-18T06:59:23;94595.09;;;29.81;49.20
6393;BME280;3229;42.674;23.282;2022-08-18T07:01:52;94582.91;;;29.69;48.72
6393;BME280;3229;42.674;23.282;2022-08-18T07:04:32;94596.16;;;29.90;48.33
6393;BME280;3229;42.674;23.282;2022-08-18T07:07:15;94588.25;;;29.90;48.64
6393;BME280;3229;42.674;23.282;2022-08-18T07:09:44;94588.50;;;29.98;48.60
6393;BME280;3229;42.674;23.282;2022-08-18T07:12:19;94590.38;;;30.08;48.62
6393;BME280;3229;42.674;23.282;2022-08-18T07:14:48;94561.88;;;30.05;48.93
6393;BME280;3229;42.674;23.282;2022-08-18T07:17:20;94576.94;;;30.35;48.74
6393;BME280;3229;42.674;23.282;2022-08-18T07:19:56;94575.38;;;30.60;48.62
6393;BME280;3229;42.674;23.282;2022-08-18T07:22:23;94570.38;;;30.79;47.75
6393;BME280;3229;42.674;23.282;2022-08-18T07:24:55;94571.91;;;30.95;47.33
6393;BME280;3229;42.674;23.282;2022-08-18T07:27:40;94580.28;;;31.12;46.91
6393;BME280;3229;42.674;23.282;2022-08-18T07:30:11;94575.50;;;31.24;45.86
6393;BME280;3229;42.674;23.282;2022-08-18T07:32:43;94583.44;;;31.35;45.82
6393;BME280;3229;42.674;23.282;2022-08-18T07:35:14;94573.31;;;31.52;45.52
6393;BME280;3229;42.674;23.282;2022-08-18T07:37:46;94584.09;;;31.66;44.55
6393;BME280;3229;42.674;23.282;2022-08-18T07:40:26;94578.47;;;31.72;44.51
6393;BME280;3229;42.674;23.282;2022-08-18T07:42:58;94582.41;;;31.80;44.34
6393;BME280;3229;42.674;23.282;2022-08-18T07:45:31;94588.44;;;31.96;44.75
6393;BME280;3229;42.674;23.282;2022-08-18T07:48:03;94584.44;;;31.98;43.89
6393;BME280;3229;42.674;23.282;2022-08-18T07:50:40;94567.75;;;32.03;44.33
6393;BME280;3229;42.674;23.282;2022-08-18T07:53:21;94579.31;;;32.17;43.86
6393;BME280;3229;42.674;23.282;2022-08-18T07:55:58;94578.19;;;32.23;43.03
6393;BME280;3229;42.674;23.282;2022-08-18T07:58:33;94586.25;;;32.03;43.43
6393;BME280;3229;42.674;23.282;2022-08-18T08:01:08;94569.25;;;32.14;43.53
6393;BME280;3229;42.674;23.282;2022-08-18T08:03:47;94586.09;;;32.29;42.94
6393;BME280;3229;42.674;23.282;2022-08-18T08:06:22;94581.38;;;32.26;42.40
6393;BME280;3229;42.674;23.282;2022-08-18T08:08:58;94579.97;;;32.33;42.98
6393;BME280;3229;42.674;23.282;2022-08-18T08:11:37;94581.78;;;32.43;41.63
6393;BME280;3229;42.674;23.282;2022-08-18T08:14:29;94569.38;;;32.33;41.70
6393;BME280;3229;42.674;23.282;2022-08-18T08:17:06;94578.63;;;32.41;41.81
6393;BME280;3229;42.674;23.282;2022-08-18T08:20:03;94580.84;;;32.58;42.27
6393;BME280;3229;42.674;23.282;2022-08-18T08:22:38;94573.50;;;32.79;42.13
6393;BME280;3229;42.674;23.282;2022-08-18T08:25:17;94570.72;;;32.94;41.58
6393;BME280;3229;42.674;23.282;2022-08-18T08:27:59;94568.94;;;33.13;40.92
6393;BME280;3229;42.674;23.282;2022-08-18T08:30:35;94575.53;;;33.16;40.12
6393;BME280;3229;42.674;23.282;2022-08-18T08:33:08;94576.38;;;33.11;40.49
6393;BME280;3229;42.674;23.282;2022-08-18T08:35:42;94577.63;;;32.95;39.54
6393;BME280;3229;42.674;23.282;2022-08-18T08:38:17;94552.47;;;32.92;39.48
6393;BME280;3229;42.674;23.282;2022-08-18T08:40:49;94569.72;;;33.14;38.70
6393;BME280;3229;42.674;23.282;2022-08-18T08:43:25;94567.00;;;33.19;37.99
6393;BME280;3229;42.674;23.282;2022-08-18T08:46:02;94565.94;;;33.20;38.44
6393;BME280;3229;42.674;23.282;2022-08-18T08:48:36;94567.25;;;33.22;38.15
6393;BME280;3229;42.674;23.282;2022-08-18T08:51:28;94569.03;;;33.27;38.12
6393;BME280;3229;42.674;23.282;2022-08-18T08:54:03;94551.25;;;33.09;37.54
6393;BME280;3229;42.674;23.282;2022-08-18T08:56:34;94570.91;;;33.27;37.59
6393;BME280;3229;42.674;23.282;2022-08-18T08:59:07;94564.88;;;33.21;37.73
6393;BME280;3229;42.674;23.282;2022-08-18T09:01:42;94559.69;;;33.11;37.08
6393;BME280;3229;42.674;23.282;2022-08-18T09:04:20;94567.94;;;33.09;36.71
6393;BME280;3229;42.674;23.282;2022-08-18T09:06:55;94552.97;;;32.94;37.23
6393;BME280;3229;42.674;23.282;2022-08-18T09:12:31;94544.47;;;33.21;37.04
6393;BME280;3229;42.674;23.282;2022-08-18T09:15:31;94558.78;;;33.44;36.61
6393;BME280;3229;42.674;23.282;2022-08-18T09:18:31;94547.13;;;33.40;36.72
6393;BME280;3229;42.674;23.282;2022-08-18T09:21:24;94552.44;;;33.40;36.52
6393;BME280;3229;42.674;23.282;2022-08-18T09:24:04;94519.34;;;33.38;36.64
6393;BME280;3229;42.674;23.282;2022-08-18T09:26:42;94547.69;;;33.61;36.12
6393;BME280;3229;42.674;23.282;2022-08-18T09:29:17;94545.59;;;33.58;36.04
6393;BME280;3229;42.674;23.282;2022-08-18T09:31:48;94518.81;;;33.36;35.81
6393;BME280;3229;42.674;23.282;2022-08-18T09:34:43;94528.03;;;33.43;36.16
6393;BME280;3229;42.674;23.282;2022-08-18T09:37:18;94516.69;;;33.38;36.18
6393;BME280;3229;42.674;23.282;2022-08-18T09:39:55;94535.50;;;33.60;35.88
6393;BME280;3229;42.674;23.282;2022-08-18T09:42:47;94535.75;;;33.64;36.05
6393;BME280;3229;42.674;23.282;2022-08-18T09:45:54;94539.50;;;33.58;35.51
6393;BME280;3229;42.674;23.282;2022-08-18T09:48:29;94537.88;;;33.62;35.34
6393;BME280;3229;42.674;23.282;2022-08-18T09:51:15;94530.13;;;33.65;35.27
6393;BME280;3229;42.674;23.282;2022-08-18T09:54:10;94525.84;;;33.69;35.07
6393;BME280;3229;42.674;23.282;2022-08-18T09:57:13;94523.81;;;33.61;35.36
6393;BME280;3229;42.674;23.282;2022-08-18T10:00:18;94514.13;;;33.70;35.80
6393;BME280;3229;42.674;23.282;2022-08-18T10:03:18;94513.56;;;33.74;35.69
6393;BME280;3229;42.674;23.282;2022-08-18T10:06:03;94510.63;;;33.75;35.89
6393;BME280;3229;42.674;23.282;2022-08-18T10:11:35;94503.66;;;33.98;35.31
6393;BME280;3229;42.674;23.282;2022-08-18T10:14:36;94492.84;;;33.94;35.04
6393;BME280;3229;42.674;23.282;2022-08-18T10:17:19;94507.31;;;34.02;35.04
6393;BME280;3229;42.674;23.282;2022-08-18T10:19:53;94498.56;;;34.02;35.27
6393;BME280;3229;42.674;23.282;2022-08-18T10:22:38;94500.53;;;33.96;35.11
6393;BME280;3229;42.674;23.282;2022-08-18T10:25:08;94498.78;;;33.86;35.44
6393;BME280;3229;42.674;23.282;2022-08-18T10:27:48;94502.31;;;33.82;35.81
6393;BME280;3229;42.674;23.282;2022-08-18T10:30:45;94498.06;;;33.81;35.74
6393;BME280;3229;42.674;23.282;2022-08-18T10:36:34;94486.25;;;33.73;34.84
6393;BME280;3229;42.674;23.282;2022-08-18T10:39:05;94484.59;;;33.77;35.40
6393;BME280;3229;42.674;23.282;2022-08-18T10:41:36;94493.91;;;33.75;34.99
6393;BME280;3229;42.674;23.282;2022-08-18T10:44:12;94483.09;;;33.71;35.33
6393;BME280;3229;42.674;23.282;2022-08-18T10:46:41;94484.31;;;33.79;34.74
6393;BME280;3229;42.674;23.282;2022-08-18T10:49:18;94456.94;;;33.64;35.15
6393;BME280;3229;42.674;23.282;2022-08-18T10:55:15;94480.78;;;33.83;34.75
6393;BME280;3229;42.674;23.282;2022-08-18T10:58:14;94474.13;;;33.86;34.85
6393;BME280;3229;42.674;23.282;2022-08-18T11:00:58;94453.34;;;33.74;35.10
6393;BME280;3229;42.674;23.282;2022-08-18T11:03:37;94458.47;;;33.84;35.28
6393;BME280;3229;42.674;23.282;2022-08-18T11:06:10;94454.97;;;33.89;34.57
6393;BME280;3229;42.674;23.282;2022-08-18T11:08:45;94425.34;;;33.68;33.42
6393;BME280;3229;42.674;23.282;2022-08-18T11:11:20;94457.22;;;33.82;33.73
6393;BME280;3229;42.674;23.282;2022-08-18T11:13:55;94459.09;;;33.81;33.14
6393;BME280;3229;42.674;23.282;2022-08-18T11:16:37;94455.03;;;33.84;32.93
6393;BME280;3229;42.674;23.282;2022-08-18T11:19:10;94462.00;;;33.80;33.40
6393;BME280;3229;42.674;23.282;2022-08-18T11:21:40;94461.72;;;33.81;33.29
6393;BME280;3229;42.674;23.282;2022-08-18T11:24:11;94444.03;;;33.58;33.61
6393;BME280;3229;42.674;23.282;2022-08-18T11:26:42;94462.00;;;33.80;34.52
6393;BME280;3229;42.674;23.282;2022-08-18T11:29:22;94457.94;;;33.68;33.32
6393;BME280;3229;42.674;23.282;2022-08-18T11:31:52;94459.81;;;33.68;33.35
6393;BME280;3229;42.674;23.282;2022-08-18T11:34:24;94459.22;;;33.71;34.12
6393;BME280;3229;42.674;23.282;2022-08-18T11:36:55;94452.50;;;33.60;33.00
6393;BME280;3229;42.674;23.282;2022-08-18T11:39:23;94451.50;;;33.56;33.25
6393;BME280;3229;42.674;23.282;2022-08-18T11:41:52;94453.09;;;33.33;33.10
6393;BME280;3229;42.674;23.282;2022-08-18T11:44:21;94449.41;;;33.34;33.23
6393;BME280;3229;42.674;23.282;2022-08-18T11:46:53;94457.56;;;33.37;33.40
6393;BME280;3229;42.674;23.282;2022-08-18T11:49:28;94452.41;;;33.46;33.26
6393;BME280;3229;42.674;23.282;2022-08-18T11:51:59;94449.13;;;33.54;33.74
6393;BME280;3229;42.674;23.282;2022-08-18T11:54:35;94429.22;;;33.57;33.70
6393;BME280;3229;42.674;23.282;2022-08-18T11:57:29;94442.91;;;33.64;33.04
6393;BME280;3229;42.674;23.282;2022-08-18T11:59:56;94436.00;;;33.63;33.83
6393;BME280;3229;42.674;23.282;2022-08-18T12:02:24;94435.66;;;33.69;34.01
6393;BME280;3229;42.674;23.282;2022-08-18T12:04:53;94427.50;;;33.80;33.72
6393;BME280;3229;42.674;23.282;2022-08-18T12:07:30;94420.06;;;33.82;33.61
6393;BME280;3229;42.674;23.282;2022-08-18T12:10:21;94429.22;;;33.89;32.95
6393;BME280;3229;42.674;23.282;2022-08-18T12:12:52;94424.88;;;33.99;32.88
6393;BME280;3229;42.674;23.282;2022-08-18T12:15:26;94427.53;;;33.93;33.08
6393;BME280;3229;42.674;23.282;2022-08-18T12:17:53;94423.25;;;33.98;33.12
6393;BME280;3229;42.674;23.282;2022-08-18T12:20:21;94415.31;;;33.98;33.31
6393;BME280;3229;42.674;23.282;2022-08-18T12:22:48;94417.97;;;33.98;33.50
6393;BME280;3229;42.674;23.282;2022-08-18T12:25:17;94413.16;;;34.00;33.84
6393;BME280;3229;42.674;23.282;2022-08-18T12:27:44;94416.66;;;33.95;33.42
6393;BME280;3229;42.674;23.282;2022-08-18T12:30:13;94389.88;;;33.78;33.79
6393;BME280;3229;42.674;23.282;2022-08-18T12:32:40;94408.63;;;34.00;33.43
6393;BME280;3229;42.674;23.282;2022-08-18T12:35:09;94401.16;;;34.02;33.58
6393;BME280;3229;42.674;23.282;2022-08-18T12:37:37;94411.28;;;34.00;33.75
6393;BME280;3229;42.674;23.282;2022-08-18T12:40:07;94406.47;;;34.02;34.08
6393;BME280;3229;42.674;23.282;2022-08-18T12:42:36;94385.09;;;33.93;34.22
6393;BME280;3229;42.674;23.282;2022-08-18T12:45:05;94410.13;;;34.06;33.75
6393;BME280;3229;42.674;23.282;2022-08-18T12:47:37;94400.97;;;33.99;34.21
6393;BME280;3229;42.674;23.282;2022-08-18T12:50:06;94422.03;;;34.09;33.46
6393;BME280;3229;42.674;23.282;2022-08-18T12:52:33;94412.50;;;34.08;33.15
6393;BME280;3229;42.674;23.282;2022-08-18T12:55:00;94411.88;;;33.97;32.99
6393;BME280;3229;42.674;23.282;2022-08-18T12:57:27;94406.63;;;33.92;33.72
6393;BME280;3229;42.674;23.282;2022-08-18T12:59:54;94408.66;;;33.81;33.17
6393;BME280;3229;42.674;23.282;2022-08-18T13:02:21;94411.69;;;33.75;33.39
6393;BME280;3229;42.674;23.282;2022-08-18T13:04:49;94420.50;;;33.70;33.60
6393;BME280;3229;42.674;23.282;2022-08-18T13:07:16;94392.66;;;33.54;33.46
6393;BME280;3229;42.674;23.282;2022-08-18T13:09:43;94403.38;;;33.62;33.43
6393;BME280;3229;42.674;23.282;2022-08-18T13:12:11;94385.69;;;33.58;33.73
6393;BME280;3229;42.674;23.282;2022-08-18T13:14:38;94398.06;;;33.62;33.90
6393;BME280;3229;42.674;23.282;2022-08-18T13:17:05;94409.19;;;33.64;33.17
6393;BME280;3229;42.674;23.282;2022-08-18T13:19:32;94409.94;;;33.51;33.82
6393;BME280;3229;42.674;23.282;2022-08-18T13:22:00;94394.09;;;33.46;33.95
6393;BME280;3229;42.674;23.282;2022-08-18T13:24:27;94392.94;;;33.52;33.51
6393;BME280;3229;42.674;23.282;2022-08-18T13:26:54;94375.25;;;33.48;33.32
6393;BME280;3229;42.674;23.282;2022-08-18T13:29:21;94387.22;;;33.45;33.65
6393;BME280;3229;42.674;23.282;2022-08-18T13:31:49;94363.28;;;33.31;33.71
6393;BME280;3229;42.674;23.282;2022-08-18T13:34:22;94381.66;;;33.41;33.69
6393;BME280;3229;42.674;23.282;2022-08-18T13:36:48;94374.22;;;33.43;33.66
6393;BME280;3229;42.674;23.282;2022-08-18T13:39:19;94376.88;;;33.43;33.83
6393;BME280;3229;42.674;23.282;2022-08-18T13:41:47;94388.50;;;33.48;33.44
6393;BME280;3229;42.674;23.282;2022-08-18T13:44:16;94381.47;;;33.38;33.62
6393;BME280;3229;42.674;23.282;2022-08-18T13:46:43;94375.88;;;33.39;33.87
6393;BME280;3229;42.674;23.282;2022-08-18T13:49:11;94375.56;;;33.41;33.55
6393;BME280;3229;42.674;23.282;2022-08-18T13:51:39;94371.84;;;33.42;34.04